createdAt,value
2018-02-11T10:15:35.987Z,41.06
2018-02-11T10:18:07.088Z,43.09
2018-02-11T10:20:38.186Z,43.97
2018-02-11T10:23:09.262Z,45.47
2018-02-11T10:25:40.329Z,47.14
2018-02-11T10:28:11.432Z,47.65
2018-02-11T10:30:42.487Z,47.88
2018-02-11T10:33:13.612Z,46.39
2018-02-11T10:35:44.753Z,45.53
2018-02-11T10:38:15.837Z,44.51
2018-02-11T10:40:46.962Z,43.79
2018-02-11T10:43:18.030Z,43.77
2018-02-11T10:45:49.163Z,44.71
2018-02-11T10:48:20.200Z,45.97
2018-02-11T10:50:51.321Z,47.23
2018-02-11T10:53:22.495Z,47.35
2018-02-11T10:55:53.610Z,46.39
2018-02-11T10:58:24.698Z,45.95
2018-02-11T11:00:55.799Z,46.07
2018-02-11T11:03:26.855Z,46.61
2018-02-11T11:05:57.978Z,46.84
2018-02-11T11:08:29.091Z,46.62
2018-02-11T11:11:00.285Z,46.47
2018-02-11T11:13:31.438Z,46.62
2018-02-11T11:16:02.553Z,47.47
2018-02-11T11:18:33.627Z,47.53
2018-02-11T11:21:04.728Z,46.53
2018-02-11T11:23:35.864Z,45.82
2018-02-11T11:26:06.956Z,45.55
2018-02-11T11:28:38.056Z,45.07
2018-02-11T11:31:09.174Z,44.90
2018-02-11T11:33:40.245Z,44.64
2018-02-11T11:36:11.560Z,44.69
2018-02-11T11:38:42.616Z,44.71
2018-02-11T11:41:13.732Z,45.66
2018-02-11T11:43:44.839Z,47.79
2018-02-11T11:46:15.929Z,49.15
2018-02-11T11:48:47.017Z,50.94
2018-02-11T11:51:18.078Z,51.82
2018-02-11T11:53:49.170Z,53.06
2018-02-11T11:56:20.251Z,53.82
2018-02-11T11:58:51.333Z,53.37
2018-02-11T12:01:22.424Z,52.76
2018-02-11T12:03:53.507Z,52.66
2018-02-11T12:06:24.567Z,52.39
2018-02-11T12:08:55.642Z,52.10
2018-02-11T12:11:26.722Z,51.45
2018-02-11T12:13:57.822Z,50.41
2018-02-11T12:16:28.945Z,49.71
2018-02-11T12:19:00.039Z,48.97
2018-02-11T12:21:31.134Z,49.14
2018-02-11T12:24:02.196Z,48.65
2018-02-11T12:26:33.294Z,49.30
2018-02-11T12:29:04.406Z,49.14
2018-02-11T12:31:35.498Z,49.41
2018-02-11T12:34:06.530Z,49.71
2018-02-11T12:36:37.655Z,49.68
2018-02-11T12:39:08.718Z,49.45
2018-02-11T12:41:39.790Z,49.87
2018-02-11T12:44:10.928Z,50.54
2018-02-11T12:46:42.222Z,51.10
2018-02-11T12:49:13.304Z,52.27
2018-02-11T12:51:44.414Z,53.62
2018-02-11T12:54:15.442Z,54.38
2018-02-11T12:56:46.473Z,54.99
2018-02-11T12:59:17.570Z,55.54
2018-02-11T13:01:48.639Z,55.39
2018-02-11T13:04:19.716Z,55.17
2018-02-11T13:06:50.791Z,54.77
2018-02-11T13:09:21.870Z,54.75
2018-02-11T13:12:00.042Z,54.67
2018-02-11T13:14:31.098Z,55.71
2018-02-11T13:17:02.154Z,56.29
2018-02-11T13:19:33.245Z,57.05
2018-02-11T13:22:04.311Z,56.77
2018-02-11T13:24:35.421Z,56.81
2018-02-11T13:27:06.477Z,56.35
2018-02-11T13:29:37.581Z,55.89
2018-02-11T13:32:08.678Z,56.23
2018-02-11T13:34:39.742Z,57.24
2018-02-11T13:37:10.806Z,57.19
2018-02-11T13:39:41.985Z,56.93
2018-02-11T13:42:13.090Z,56.87
2018-02-11T13:44:44.200Z,56.67
2018-02-11T13:47:16.298Z,56.89
2018-02-11T13:49:47.421Z,57.09
2018-02-11T13:52:18.548Z,57.31
2018-02-11T13:54:49.605Z,57.69
2018-02-11T13:57:20.690Z,58.53
2018-02-11T13:59:51.776Z,58.68
2018-02-11T14:02:24.409Z,58.81
2018-02-11T14:04:55.517Z,58.60
2018-02-11T14:07:27.200Z,58.42
2018-02-11T14:09:58.273Z,58.17
2018-02-11T14:12:29.368Z,57.95
2018-02-11T14:15:00.449Z,57.66
2018-02-11T14:17:31.583Z,58.01
2018-02-11T14:20:02.693Z,58.20
2018-02-11T14:22:33.770Z,58.35
2018-02-11T14:25:05.052Z,58.34
2018-02-11T14:27:36.229Z,58.80
2018-02-11T14:30:07.313Z,59.26
2018-02-11T14:32:38.429Z,59.52
2018-02-11T14:35:09.552Z,59.80
2018-02-11T14:37:40.736Z,59.89
2018-02-11T14:40:11.785Z,59.78
2018-02-11T14:42:42.862Z,59.63
2018-02-11T14:45:13.946Z,60.27
2018-02-11T14:47:45.052Z,60.19
2018-02-11T14:50:16.158Z,61.12
2018-02-11T14:52:47.245Z,61.16
2018-02-11T14:55:18.286Z,60.75
2018-02-11T14:57:49.344Z,60.66
2018-02-11T15:00:21.058Z,60.59
2018-02-11T15:02:52.123Z,60.75
2018-02-11T15:05:23.214Z,61.28
2018-02-11T15:07:54.615Z,61.78
2018-02-11T15:10:26.350Z,62.00
2018-02-11T15:12:57.425Z,62.24
2018-02-11T15:15:28.471Z,62.31
2018-02-11T15:17:59.599Z,62.29
2018-02-11T15:20:30.708Z,62.14
2018-02-11T15:23:01.827Z,62.04
2018-02-11T15:25:33.004Z,61.77
2018-02-11T15:28:04.075Z,62.01
2018-02-11T15:30:35.944Z,62.40
2018-02-11T15:33:07.172Z,62.42
2018-02-11T15:35:38.260Z,62.55
2018-02-11T15:38:09.318Z,62.41
2018-02-11T15:40:40.405Z,62.37
2018-02-11T15:43:11.499Z,62.33
2018-02-11T15:45:42.657Z,62.37
2018-02-11T15:48:13.741Z,62.33
2018-02-11T15:50:45.139Z,62.39
2018-02-11T15:53:16.973Z,62.47
2018-02-11T15:55:48.096Z,62.33
2018-02-11T15:58:19.186Z,62.35
2018-02-11T16:00:50.282Z,62.35
2018-02-11T16:03:21.324Z,62.42
2018-02-11T16:05:52.464Z,62.29
2018-02-11T16:08:23.583Z,62.29
2018-02-11T16:10:54.703Z,62.47
2018-02-11T16:13:25.887Z,62.97
2018-02-11T16:15:56.956Z,63.09
2018-02-11T16:18:28.033Z,63.04
2018-02-11T16:20:59.051Z,63.09
2018-02-11T16:23:30.553Z,63.37
2018-02-11T16:26:01.634Z,63.48
2018-02-11T16:28:32.728Z,63.47
2018-02-11T16:31:03.772Z,63.77
2018-02-11T16:33:34.819Z,63.91
2018-02-11T16:36:05.894Z,63.87
2018-02-11T16:38:37.056Z,63.85
2018-02-11T16:41:08.205Z,63.80
2018-02-11T16:43:39.325Z,63.70
2018-02-11T16:46:10.415Z,63.71
2018-02-11T16:48:41.480Z,63.66
2018-02-11T16:51:13.434Z,63.83
2018-02-11T16:53:44.519Z,63.94
2018-02-11T16:56:15.703Z,64.05
2018-02-11T16:58:46.845Z,63.98
2018-02-11T17:01:17.972Z,63.89
2018-02-11T17:03:49.074Z,63.77
2018-02-11T17:06:20.168Z,63.91
2018-02-11T17:08:51.298Z,64.21
2018-02-11T17:11:22.324Z,64.45
2018-02-11T17:13:53.815Z,64.95
2018-02-11T17:16:25.020Z,65.19
2018-02-11T17:18:56.087Z,65.25
2018-02-11T17:21:27.199Z,64.97
2018-02-11T17:23:58.271Z,65.06
2018-02-11T17:26:29.899Z,65.08
2018-02-11T17:29:00.978Z,65.32
2018-02-11T17:31:32.102Z,66.11
2018-02-11T17:34:03.207Z,66.08
2018-02-11T17:36:34.289Z,66.37
2018-02-11T17:39:05.486Z,66.63
2018-02-11T17:41:36.666Z,66.86
2018-02-11T17:44:08.070Z,66.76
2018-02-11T17:46:39.130Z,66.64
2018-02-11T17:49:10.188Z,66.09
2018-02-11T17:51:41.243Z,65.76
2018-02-11T17:54:12.387Z,65.62
2018-02-11T17:56:43.476Z,65.75
2018-02-11T17:59:14.582Z,65.78
2018-02-11T18:01:45.674Z,65.83
2018-02-11T18:04:16.793Z,65.85
2018-02-11T18:06:47.850Z,65.60
2018-02-11T18:09:18.922Z,65.53
2018-02-11T18:11:49.963Z,65.76
2018-02-11T18:14:21.075Z,65.90
2018-02-11T18:16:52.257Z,65.98
2018-02-11T18:19:23.391Z,66.11
2018-02-11T18:21:54.425Z,66.33
2018-02-11T18:24:25.516Z,66.42
2018-02-11T18:26:56.596Z,66.69
2018-02-11T18:29:27.712Z,66.37
2018-02-11T18:31:58.742Z,66.18
2018-02-11T18:34:29.825Z,65.92
2018-02-11T18:37:00.893Z,65.93
2018-02-11T18:39:32.000Z,65.86
2018-02-11T18:42:03.114Z,65.98
2018-02-11T18:44:34.192Z,65.87
2018-02-11T18:47:05.254Z,65.90
2018-02-11T18:49:36.321Z,65.97
2018-02-11T18:52:07.397Z,66.27
2018-02-11T18:54:38.429Z,66.39
2018-02-11T18:57:09.540Z,66.55
2018-02-11T18:59:40.581Z,66.75
2018-02-11T19:02:11.684Z,66.95
2018-02-11T19:04:42.878Z,66.97
2018-02-11T19:07:13.985Z,67.22
2018-02-11T19:09:45.036Z,67.09
2018-02-11T19:12:16.126Z,67.52
2018-02-11T19:14:47.181Z,67.49
2018-02-11T19:17:18.287Z,67.31
2018-02-11T19:19:49.503Z,67.17
2018-02-11T19:22:20.623Z,66.95
2018-02-11T19:24:51.747Z,66.82
2018-02-11T19:27:22.844Z,66.79
2018-02-11T19:29:53.975Z,66.90
2018-02-11T19:32:25.276Z,66.97
2018-02-11T19:34:56.415Z,66.81
2018-02-11T19:37:27.475Z,66.64
2018-02-11T19:39:58.546Z,66.52
2018-02-11T19:42:29.643Z,66.67
2018-02-11T19:45:00.728Z,66.60
2018-02-11T19:47:31.840Z,66.41
2018-02-11T19:50:02.909Z,66.25
2018-02-11T19:52:33.986Z,66.04
2018-02-11T19:55:05.174Z,66.22
2018-02-11T19:57:36.306Z,66.58
2018-02-11T20:00:07.444Z,66.67
2018-02-11T20:02:38.563Z,67.05
2018-02-11T20:05:09.619Z,67.26
2018-02-11T20:07:40.788Z,67.25
2018-02-11T20:10:11.854Z,67.46
2018-02-11T20:12:42.953Z,67.44
2018-02-11T20:15:13.998Z,67.53
2018-02-11T20:17:45.096Z,67.39
2018-02-11T20:20:16.155Z,67.07
2018-02-11T20:22:47.273Z,66.61
2018-02-11T20:25:18.358Z,66.57
2018-02-11T20:27:49.993Z,66.59
2018-02-11T20:30:21.171Z,67.01
2018-02-11T20:32:52.256Z,67.31
2018-02-11T20:35:23.389Z,67.38
2018-02-11T20:37:54.483Z,67.70
2018-02-11T20:40:25.613Z,68.00
2018-02-11T20:42:56.706Z,68.31
2018-02-11T20:45:27.799Z,68.09
2018-02-11T20:47:58.904Z,67.76
2018-02-11T20:50:30.064Z,67.73
2018-02-11T20:53:01.278Z,67.83
2018-02-11T20:55:32.369Z,68.43
2018-02-11T20:58:03.458Z,68.66
2018-02-11T21:00:34.584Z,69.15
2018-02-11T21:03:05.710Z,69.43
2018-02-11T21:05:36.819Z,69.62
2018-02-11T21:08:08.101Z,69.65
2018-02-11T21:10:39.766Z,69.96
2018-02-11T21:13:10.859Z,70.11
2018-02-11T21:15:42.077Z,69.93
2018-02-11T21:18:13.152Z,69.63
2018-02-11T21:20:51.264Z,69.78
2018-02-11T21:23:22.380Z,69.82
2018-02-11T21:25:53.471Z,69.79
2018-02-11T21:28:24.539Z,69.98
2018-02-11T21:30:55.599Z,69.78
2018-02-11T21:33:26.709Z,69.59
2018-02-11T21:35:57.776Z,69.52
2018-02-11T21:38:28.927Z,69.22
2018-02-11T21:41:00.024Z,68.81
2018-02-11T21:43:31.136Z,68.41
2018-02-11T21:46:02.171Z,67.94
2018-02-11T21:48:33.224Z,67.70
2018-02-11T21:51:04.301Z,67.40
2018-02-11T21:53:35.366Z,67.15
2018-02-11T21:56:06.581Z,67.01
2018-02-11T21:58:37.732Z,66.94
2018-02-11T22:01:08.785Z,66.99
2018-02-11T22:03:39.871Z,67.20
2018-02-11T22:06:10.984Z,67.39
2018-02-11T22:08:42.027Z,67.48
2018-02-11T22:11:13.134Z,67.62
2018-02-11T22:13:44.437Z,67.41
2018-02-11T22:16:15.565Z,67.26
2018-02-11T22:18:46.649Z,67.19
2018-02-11T22:21:17.696Z,67.32
2018-02-11T22:23:48.762Z,67.21
2018-02-11T22:26:19.861Z,67.07
2018-02-11T22:28:50.964Z,67.04
2018-02-11T22:31:22.011Z,67.06
2018-02-11T22:33:53.082Z,67.35
2018-02-11T22:36:24.151Z,67.40
2018-02-11T22:38:55.181Z,67.39
2018-02-11T22:41:26.334Z,67.53
2018-02-11T22:43:57.413Z,67.53
2018-02-11T22:46:28.512Z,67.37
2018-02-11T22:48:59.639Z,67.14
2018-02-11T22:51:30.782Z,66.99
2018-02-11T22:54:01.855Z,67.13
2018-02-11T22:56:32.927Z,67.29
2018-02-11T22:59:04.010Z,67.42
2018-02-11T23:01:35.163Z,67.47
2018-02-11T23:04:06.282Z,67.71
2018-02-11T23:06:37.409Z,67.58
2018-02-11T23:09:08.441Z,67.52
2018-02-11T23:11:39.469Z,67.27
2018-02-11T23:14:10.532Z,67.06
2018-02-11T23:16:42.325Z,67.02
2018-02-11T23:19:13.399Z,67.01
2018-02-11T23:21:44.430Z,67.37
2018-02-11T23:24:15.519Z,67.45
2018-02-11T23:26:46.566Z,67.72
2018-02-11T23:29:17.610Z,67.84
2018-02-11T23:31:48.617Z,68.25
2018-02-11T23:34:19.660Z,68.49
2018-02-11T23:36:50.657Z,68.83
2018-02-11T23:39:21.739Z,69.31
2018-02-11T23:41:52.817Z,69.55
2018-02-11T23:44:23.863Z,69.72
2018-02-11T23:46:54.933Z,70.09
2018-02-11T23:49:25.996Z,70.37
2018-02-11T23:51:57.069Z,70.31
2018-02-11T23:54:28.111Z,70.41
2018-02-11T23:56:59.186Z,70.66
2018-02-11T23:59:30.229Z,70.63
